Shantytown, Nevada
Current Conditions -  °F | °C
As of 11:56 AM on Saturday 25 Oct 2014 (Local Time) from KEKO Reporting Station
Haze Haze  
Wind Chill: 71°   Ceiling: 2700
Heat Index: 71°   Visibility: 2.5mi
Dew Point: 31°   Wind: 23mph
Humidity: 23%   Direction: 210°SSW
Pressure: 29.96"   Gusts: 38mph
Location:  40.3333°N, 115.23°W
Report Text: KEKO 251856Z AUTO 21020G33KT 2 1/2SM HZ BKN027 OVC035 22/M01 A2996 RMK AO2 PK WND 19034/1759 SLP096 T02171006
Loading
Personal Weather Stations






























Interactive Weather Map
Tropical Storm Tracking
New forecast layout! Learn more

10-Day Weather Forecast

Advertisements
Track Severe Weather on mobile